sensor_id;sensor_type;location;lat;lon;timestamp;P1;durP1;ratioP1;P2;durP2;ratioP2
42030;SDS011;27709;52.036;5.906;2024-02-23T00:00:03;2.63;;;0.50;;
42030;SDS011;27709;52.036;5.906;2024-02-23T00:02:30;1.10;;;0.38;;
42030;SDS011;27709;52.036;5.906;2024-02-23T00:04:56;3.38;;;0.50;;
42030;SDS011;27709;52.036;5.906;2024-02-23T00:07:22;4.20;;;0.70;;
42030;SDS011;27709;52.036;5.906;2024-02-23T00:09:51;2.65;;;0.40;;
42030;SDS011;27709;52.036;5.906;2024-02-23T00:12:16;0.82;;;0.30;;
42030;SDS011;27709;52.036;5.906;2024-02-23T00:14:43;2.75;;;0.40;;
42030;SDS011;27709;52.036;5.906;2024-02-23T00:17:09;3.90;;;0.40;;
42030;SDS011;27709;52.036;5.906;2024-02-23T00:19:36;3.88;;;0.50;;
42030;SDS011;27709;52.036;5.906;2024-02-23T00:22:02;3.63;;;0.40;;
42030;SDS011;27709;52.036;5.906;2024-02-23T00:24:28;3.40;;;0.43;;
42030;SDS011;27709;52.036;5.906;2024-02-23T00:26:54;3.45;;;0.40;;
42030;SDS011;27709;52.036;5.906;2024-02-23T00:29:20;6.80;;;0.60;;
42030;SDS011;27709;52.036;5.906;2024-02-23T00:31:46;4.18;;;0.63;;
42030;SDS011;27709;52.036;5.906;2024-02-23T00:34:12;6.13;;;0.70;;
42030;SDS011;27709;52.036;5.906;2024-02-23T00:36:41;4.55;;;0.80;;
42030;SDS011;27709;52.036;5.906;2024-02-23T00:39:09;5.35;;;0.90;;
42030;SDS011;27709;52.036;5.906;2024-02-23T00:41:35;5.05;;;1.05;;
42030;SDS011;27709;52.036;5.906;2024-02-23T00:44:01;6.35;;;0.90;;
42030;SDS011;27709;52.036;5.906;2024-02-23T00:46:27;4.30;;;0.70;;
42030;SDS011;27709;52.036;5.906;2024-02-23T00:48:53;5.28;;;1.00;;
42030;SDS011;27709;52.036;5.906;2024-02-23T00:51:19;7.25;;;1.42;;
42030;SDS011;27709;52.036;5.906;2024-02-23T00:53:45;6.65;;;1.10;;
42030;SDS011;27709;52.036;5.906;2024-02-23T00:56:10;4.07;;;1.30;;
42030;SDS011;27709;52.036;5.906;2024-02-23T00:58:37;5.18;;;1.38;;
42030;SDS011;27709;52.036;5.906;2024-02-23T01:01:03;2.90;;;0.80;;
42030;SDS011;27709;52.036;5.906;2024-02-23T01:03:29;2.25;;;0.60;;
42030;SDS011;27709;52.036;5.906;2024-02-23T01:05:58;4.00;;;0.50;;
42030;SDS011;27709;52.036;5.906;2024-02-23T01:08:27;3.60;;;0.50;;
42030;SDS011;27709;52.036;5.906;2024-02-23T01:10:52;1.60;;;0.45;;
42030;SDS011;27709;52.036;5.906;2024-02-23T01:13:18;3.30;;;0.50;;
42030;SDS011;27709;52.036;5.906;2024-02-23T01:15:46;2.08;;;0.40;;
42030;SDS011;27709;52.036;5.906;2024-02-23T01:18:11;2.47;;;0.70;;
42030;SDS011;27709;52.036;5.906;2024-02-23T01:20:37;3.78;;;0.50;;
42030;SDS011;27709;52.036;5.906;2024-02-23T01:23:03;4.45;;;0.60;;
42030;SDS011;27709;52.036;5.906;2024-02-23T01:25:28;3.17;;;0.63;;
42030;SDS011;27709;52.036;5.906;2024-02-23T01:27:54;5.15;;;1.08;;
42030;SDS011;27709;52.036;5.906;2024-02-23T01:30:19;8.30;;;1.45;;
42030;SDS011;27709;52.036;5.906;2024-02-23T01:32:45;7.60;;;2.58;;
42030;SDS011;27709;52.036;5.906;2024-02-23T01:35:11;5.07;;;3.17;;
42030;SDS011;27709;52.036;5.906;2024-02-23T01:37:37;9.43;;;3.28;;
42030;SDS011;27709;52.036;5.906;2024-02-23T01:40:03;7.47;;;3.90;;
42030;SDS011;27709;52.036;5.906;2024-02-23T01:42:29;7.68;;;3.08;;
42030;SDS011;27709;52.036;5.906;2024-02-23T01:44:54;7.10;;;3.20;;
42030;SDS011;27709;52.036;5.906;2024-02-23T01:47:23;6.28;;;3.30;;
42030;SDS011;27709;52.036;5.906;2024-02-23T01:49:49;7.88;;;3.88;;
42030;SDS011;27709;52.036;5.906;2024-02-23T01:52:16;5.35;;;3.38;;
42030;SDS011;27709;52.036;5.906;2024-02-23T01:54:43;11.43;;;4.00;;
42030;SDS011;27709;52.036;5.906;2024-02-23T01:57:09;8.00;;;2.75;;
42030;SDS011;27709;52.036;5.906;2024-02-23T01:59:35;10.38;;;3.25;;
42030;SDS011;27709;52.036;5.906;2024-02-23T02:02:03;6.10;;;2.70;;
42030;SDS011;27709;52.036;5.906;2024-02-23T02:04:29;7.63;;;2.45;;
42030;SDS011;27709;52.036;5.906;2024-02-23T02:06:55;5.75;;;1.90;;
42030;SDS011;27709;52.036;5.906;2024-02-23T02:09:21;5.28;;;2.22;;
42030;SDS011;27709;52.036;5.906;2024-02-23T02:11:47;7.68;;;2.00;;
42030;SDS011;27709;52.036;5.906;2024-02-23T02:14:14;5.18;;;1.75;;
42030;SDS011;27709;52.036;5.906;2024-02-23T02:16:40;5.55;;;1.58;;
42030;SDS011;27709;52.036;5.906;2024-02-23T02:19:05;5.32;;;1.40;;
42030;SDS011;27709;52.036;5.906;2024-02-23T02:21:32;5.75;;;1.27;;
42030;SDS011;27709;52.036;5.906;2024-02-23T02:23:58;8.30;;;1.40;;
42030;SDS011;27709;52.036;5.906;2024-02-23T02:26:24;3.92;;;0.75;;
42030;SDS011;27709;52.036;5.906;2024-02-23T02:28:52;4.82;;;1.02;;
42030;SDS011;27709;52.036;5.906;2024-02-23T02:31:17;6.43;;;1.20;;
42030;SDS011;27709;52.036;5.906;2024-02-23T02:33:43;6.65;;;1.13;;
42030;SDS011;27709;52.036;5.906;2024-02-23T02:36:09;4.57;;;1.13;;
42030;SDS011;27709;52.036;5.906;2024-02-23T02:38:35;7.43;;;0.88;;
42030;SDS011;27709;52.036;5.906;2024-02-23T02:41:01;4.03;;;0.80;;
42030;SDS011;27709;52.036;5.906;2024-02-23T02:43:27;5.25;;;0.93;;
42030;SDS011;27709;52.036;5.906;2024-02-23T02:45:52;6.05;;;1.17;;
42030;SDS011;27709;52.036;5.906;2024-02-23T02:48:18;4.13;;;0.82;;
42030;SDS011;27709;52.036;5.906;2024-02-23T02:50:44;8.80;;;1.13;;
42030;SDS011;27709;52.036;5.906;2024-02-23T02:53:11;4.40;;;1.10;;
42030;SDS011;27709;52.036;5.906;2024-02-23T02:55:42;3.70;;;0.73;;
42030;SDS011;27709;52.036;5.906;2024-02-23T02:58:08;4.13;;;0.68;;
42030;SDS011;27709;52.036;5.906;2024-02-23T03:00:34;6.85;;;0.75;;
42030;SDS011;27709;52.036;5.906;2024-02-23T03:03:01;5.40;;;1.02;;
42030;SDS011;27709;52.036;5.906;2024-02-23T03:05:26;6.30;;;0.90;;
42030;SDS011;27709;52.036;5.906;2024-02-23T03:07:52;4.68;;;1.05;;
42030;SDS011;27709;52.036;5.906;2024-02-23T03:10:17;5.22;;;0.88;;
42030;SDS011;27709;52.036;5.906;2024-02-23T03:12:43;8.52;;;0.90;;
42030;SDS011;27709;52.036;5.906;2024-02-23T03:15:09;4.15;;;1.15;;
42030;SDS011;27709;52.036;5.906;2024-02-23T03:17:36;4.57;;;0.82;;
42030;SDS011;27709;52.036;5.906;2024-02-23T03:20:02;6.25;;;1.20;;
42030;SDS011;27709;52.036;5.906;2024-02-23T03:22:34;3.95;;;0.82;;
42030;SDS011;27709;52.036;5.906;2024-02-23T03:25:01;5.97;;;0.90;;
42030;SDS011;27709;52.036;5.906;2024-02-23T03:27:33;6.95;;;1.00;;
42030;SDS011;27709;52.036;5.906;2024-02-23T03:29:59;5.68;;;0.77;;
42030;SDS011;27709;52.036;5.906;2024-02-23T03:32:24;5.07;;;0.90;;
42030;SDS011;27709;52.036;5.906;2024-02-23T03:34:50;5.32;;;0.90;;
42030;SDS011;27709;52.036;5.906;2024-02-23T03:37:15;5.07;;;1.02;;
42030;SDS011;27709;52.036;5.906;2024-02-23T03:39:41;4.07;;;0.88;;
42030;SDS011;27709;52.036;5.906;2024-02-23T03:42:07;4.82;;;0.98;;
42030;SDS011;27709;52.036;5.906;2024-02-23T03:44:32;6.50;;;1.08;;
42030;SDS011;27709;52.036;5.906;2024-02-23T03:46:58;4.75;;;1.00;;
42030;SDS011;27709;52.036;5.906;2024-02-23T03:49:23;5.43;;;1.30;;
42030;SDS011;27709;52.036;5.906;2024-02-23T03:51:49;5.20;;;1.20;;
42030;SDS011;27709;52.036;5.906;2024-02-23T03:54:15;4.85;;;0.80;;
42030;SDS011;27709;52.036;5.906;2024-02-23T03:56:41;4.53;;;1.10;;
42030;SDS011;27709;52.036;5.906;2024-02-23T03:59:09;5.40;;;1.30;;
42030;SDS011;27709;52.036;5.906;2024-02-23T04:01:36;6.30;;;1.00;;
42030;SDS011;27709;52.036;5.906;2024-02-23T04:04:05;3.95;;;1.13;;
42030;SDS011;27709;52.036;5.906;2024-02-23T04:06:32;6.18;;;1.23;;
42030;SDS011;27709;52.036;5.906;2024-02-23T04:08:58;6.93;;;1.30;;
42030;SDS011;27709;52.036;5.906;2024-02-23T04:11:24;4.57;;;1.30;;
42030;SDS011;27709;52.036;5.906;2024-02-23T04:13:50;6.90;;;1.40;;
42030;SDS011;27709;52.036;5.906;2024-02-23T04:16:15;4.28;;;0.90;;
42030;SDS011;27709;52.036;5.906;2024-02-23T04:18:41;6.90;;;1.02;;
42030;SDS011;27709;52.036;5.906;2024-02-23T04:21:07;3.75;;;0.90;;
42030;SDS011;27709;52.036;5.906;2024-02-23T04:23:33;5.15;;;0.98;;
42030;SDS011;27709;52.036;5.906;2024-02-23T04:25:59;4.90;;;0.95;;
42030;SDS011;27709;52.036;5.906;2024-02-23T04:28:24;7.68;;;1.20;;
42030;SDS011;27709;52.036;5.906;2024-02-23T04:30:51;5.80;;;1.00;;
42030;SDS011;27709;52.036;5.906;2024-02-23T04:33:17;6.00;;;1.02;;
42030;SDS011;27709;52.036;5.906;2024-02-23T04:35:43;5.22;;;1.20;;
42030;SDS011;27709;52.036;5.906;2024-02-23T04:38:08;6.07;;;1.15;;
42030;SDS011;27709;52.036;5.906;2024-02-23T04:40:34;5.25;;;1.17;;
42030;SDS011;27709;52.036;5.906;2024-02-23T04:43:00;4.63;;;1.10;;
42030;SDS011;27709;52.036;5.906;2024-02-23T04:45:26;6.05;;;0.80;;
42030;SDS011;27709;52.036;5.906;2024-02-23T04:47:52;5.15;;;1.20;;
42030;SDS011;27709;52.036;5.906;2024-02-23T04:50:17;5.60;;;1.17;;
42030;SDS011;27709;52.036;5.906;2024-02-23T04:52:43;7.50;;;1.42;;
42030;SDS011;27709;52.036;5.906;2024-02-23T04:55:08;5.65;;;1.20;;
42030;SDS011;27709;52.036;5.906;2024-02-23T04:57:43;7.40;;;1.27;;
42030;SDS011;27709;52.036;5.906;2024-02-23T05:00:09;6.63;;;1.30;;
42030;SDS011;27709;52.036;5.906;2024-02-23T05:02:35;6.72;;;1.23;;
42030;SDS011;27709;52.036;5.906;2024-02-23T05:05:01;6.25;;;1.10;;
42030;SDS011;27709;52.036;5.906;2024-02-23T05:07:29;6.90;;;1.20;;
42030;SDS011;27709;52.036;5.906;2024-02-23T05:09:59;3.05;;;1.02;;
42030;SDS011;27709;52.036;5.906;2024-02-23T05:12:24;4.72;;;1.10;;
42030;SDS011;27709;52.036;5.906;2024-02-23T05:14:51;4.97;;;1.20;;
42030;SDS011;27709;52.036;5.906;2024-02-23T05:17:16;5.40;;;1.38;;
42030;SDS011;27709;52.036;5.906;2024-02-23T05:19:42;3.42;;;1.55;;
42030;SDS011;27709;52.036;5.906;2024-02-23T05:22:08;7.22;;;1.10;;
42030;SDS011;27709;52.036;5.906;2024-02-23T05:24:33;4.72;;;1.10;;
42030;SDS011;27709;52.036;5.906;2024-02-23T05:26:59;8.05;;;1.35;;
42030;SDS011;27709;52.036;5.906;2024-02-23T05:29:27;6.97;;;1.38;;
42030;SDS011;27709;52.036;5.906;2024-02-23T05:31:53;5.70;;;1.08;;
42030;SDS011;27709;52.036;5.906;2024-02-23T05:34:18;5.85;;;1.27;;
42030;SDS011;27709;52.036;5.906;2024-02-23T05:36:44;7.05;;;1.30;;
42030;SDS011;27709;52.036;5.906;2024-02-23T05:39:14;5.78;;;1.00;;
42030;SDS011;27709;52.036;5.906;2024-02-23T05:41:43;5.20;;;1.42;;
42030;SDS011;27709;52.036;5.906;2024-02-23T05:44:09;5.20;;;1.00;;
42030;SDS011;27709;52.036;5.906;2024-02-23T05:46:35;7.13;;;1.00;;
42030;SDS011;27709;52.036;5.906;2024-02-23T05:49:02;5.90;;;1.10;;
42030;SDS011;27709;52.036;5.906;2024-02-23T05:51:29;5.57;;;0.75;;
42030;SDS011;27709;52.036;5.906;2024-02-23T05:53:55;5.15;;;0.90;;
42030;SDS011;27709;52.036;5.906;2024-02-23T05:56:21;3.97;;;0.80;;
42030;SDS011;27709;52.036;5.906;2024-02-23T05:58:48;5.13;;;0.93;;
42030;SDS011;27709;52.036;5.906;2024-02-23T06:01:14;5.68;;;1.05;;
42030;SDS011;27709;52.036;5.906;2024-02-23T06:03:39;7.82;;;1.23;;
42030;SDS011;27709;52.036;5.906;2024-02-23T06:06:08;5.32;;;0.82;;
42030;SDS011;27709;52.036;5.906;2024-02-23T06:08:34;5.70;;;1.10;;
42030;SDS011;27709;52.036;5.906;2024-02-23T06:11:01;7.15;;;1.00;;
42030;SDS011;27709;52.036;5.906;2024-02-23T06:13:28;4.15;;;0.90;;
42030;SDS011;27709;52.036;5.906;2024-02-23T06:15:54;5.18;;;1.40;;
42030;SDS011;27709;52.036;5.906;2024-02-23T06:18:19;7.97;;;1.30;;
42030;SDS011;27709;52.036;5.906;2024-02-23T06:20:45;6.57;;;1.55;;
42030;SDS011;27709;52.036;5.906;2024-02-23T06:23:10;4.90;;;0.95;;
42030;SDS011;27709;52.036;5.906;2024-02-23T06:25:36;4.45;;;1.27;;
42030;SDS011;27709;52.036;5.906;2024-02-23T06:28:02;8.55;;;1.40;;
42030;SDS011;27709;52.036;5.906;2024-02-23T06:30:27;6.72;;;1.25;;
42030;SDS011;27709;52.036;5.906;2024-02-23T06:32:53;5.07;;;1.10;;
42030;SDS011;27709;52.036;5.906;2024-02-23T06:35:19;5.72;;;1.70;;
42030;SDS011;27709;52.036;5.906;2024-02-23T06:37:44;4.00;;;1.10;;
42030;SDS011;27709;52.036;5.906;2024-02-23T06:40:10;5.90;;;1.35;;
42030;SDS011;27709;52.036;5.906;2024-02-23T06:42:36;6.05;;;1.35;;
42030;SDS011;27709;52.036;5.906;2024-02-23T06:45:02;4.80;;;0.90;;
42030;SDS011;27709;52.036;5.906;2024-02-23T06:47:28;4.63;;;1.10;;
42030;SDS011;27709;52.036;5.906;2024-02-23T06:49:53;2.85;;;1.00;;
42030;SDS011;27709;52.036;5.906;2024-02-23T06:52:19;7.40;;;1.13;;
42030;SDS011;27709;52.036;5.906;2024-02-23T06:54:44;5.10;;;1.02;;
42030;SDS011;27709;52.036;5.906;2024-02-23T06:57:10;4.45;;;1.00;;
42030;SDS011;27709;52.036;5.906;2024-02-23T06:59:36;5.30;;;1.00;;
42030;SDS011;27709;52.036;5.906;2024-02-23T07:02:01;6.95;;;1.60;;
42030;SDS011;27709;52.036;5.906;2024-02-23T07:04:27;5.22;;;1.13;;
42030;SDS011;27709;52.036;5.906;2024-02-23T07:06:54;5.25;;;0.90;;
42030;SDS011;27709;52.036;5.906;2024-02-23T07:09:20;7.25;;;1.05;;
42030;SDS011;27709;52.036;5.906;2024-02-23T07:11:46;7.32;;;0.93;;
42030;SDS011;27709;52.036;5.906;2024-02-23T07:14:11;6.53;;;0.98;;
42030;SDS011;27709;52.036;5.906;2024-02-23T07:16:39;6.20;;;1.10;;
42030;SDS011;27709;52.036;5.906;2024-02-23T07:19:08;7.00;;;1.05;;
42030;SDS011;27709;52.036;5.906;2024-02-23T07:21:34;4.93;;;1.00;;
42030;SDS011;27709;52.036;5.906;2024-02-23T07:24:00;4.47;;;0.88;;
42030;SDS011;27709;52.036;5.906;2024-02-23T07:26:26;4.20;;;1.08;;
42030;SDS011;27709;52.036;5.906;2024-02-23T07:28:57;5.63;;;1.13;;
42030;SDS011;27709;52.036;5.906;2024-02-23T07:31:22;10.05;;;1.05;;
42030;SDS011;27709;52.036;5.906;2024-02-23T07:33:48;10.32;;;1.00;;
42030;SDS011;27709;52.036;5.906;2024-02-23T07:36:14;4.80;;;0.80;;
42030;SDS011;27709;52.036;5.906;2024-02-23T07:38:40;7.00;;;0.80;;
42030;SDS011;27709;52.036;5.906;2024-02-23T07:41:06;5.88;;;0.75;;
42030;SDS011;27709;52.036;5.906;2024-02-23T07:43:32;6.07;;;1.30;;
42030;SDS011;27709;52.036;5.906;2024-02-23T07:45:57;4.53;;;0.88;;
42030;SDS011;27709;52.036;5.906;2024-02-23T07:48:23;8.02;;;1.10;;
42030;SDS011;27709;52.036;5.906;2024-02-23T07:50:49;2.95;;;0.80;;
42030;SDS011;27709;52.036;5.906;2024-02-23T07:53:15;5.60;;;1.10;;
42030;SDS011;27709;52.036;5.906;2024-02-23T07:55:43;7.65;;;0.80;;
42030;SDS011;27709;52.036;5.906;2024-02-23T07:58:09;7.07;;;0.60;;
42030;SDS011;27709;52.036;5.906;2024-02-23T08:00:36;3.78;;;0.77;;
42030;SDS011;27709;52.036;5.906;2024-02-23T08:03:03;4.85;;;1.00;;
42030;SDS011;27709;52.036;5.906;2024-02-23T08:05:29;7.45;;;1.00;;
42030;SDS011;27709;52.036;5.906;2024-02-23T08:07:55;6.78;;;0.90;;
42030;SDS011;27709;52.036;5.906;2024-02-23T08:10:21;5.90;;;0.90;;
42030;SDS011;27709;52.036;5.906;2024-02-23T08:12:46;7.07;;;1.00;;
42030;SDS011;27709;52.036;5.906;2024-02-23T08:15:15;6.65;;;0.80;;
42030;SDS011;27709;52.036;5.906;2024-02-23T08:17:46;7.70;;;0.80;;
42030;SDS011;27709;52.036;5.906;2024-02-23T08:20:12;6.85;;;0.80;;
42030;SDS011;27709;52.036;5.906;2024-02-23T08:22:38;5.35;;;0.68;;
42030;SDS011;27709;52.036;5.906;2024-02-23T08:25:03;4.75;;;0.75;;
42030;SDS011;27709;52.036;5.906;2024-02-23T08:27:32;6.18;;;0.90;;
42030;SDS011;27709;52.036;5.906;2024-02-23T08:30:01;6.22;;;0.75;;
42030;SDS011;27709;52.036;5.906;2024-02-23T08:32:28;7.75;;;1.63;;
42030;SDS011;27709;52.036;5.906;2024-02-23T08:34:53;4.28;;;0.75;;
42030;SDS011;27709;52.036;5.906;2024-02-23T08:37:27;4.53;;;0.70;;
42030;SDS011;27709;52.036;5.906;2024-02-23T08:39:53;4.00;;;0.82;;
42030;SDS011;27709;52.036;5.906;2024-02-23T08:42:22;4.55;;;0.85;;
42030;SDS011;27709;52.036;5.906;2024-02-23T08:44:49;6.22;;;0.88;;
42030;SDS011;27709;52.036;5.906;2024-02-23T08:47:15;7.20;;;0.90;;
42030;SDS011;27709;52.036;5.906;2024-02-23T08:49:42;4.80;;;0.88;;
42030;SDS011;27709;52.036;5.906;2024-02-23T08:52:07;7.18;;;1.13;;
42030;SDS011;27709;52.036;5.906;2024-02-23T08:54:33;6.40;;;0.95;;
42030;SDS011;27709;52.036;5.906;2024-02-23T08:56:59;3.53;;;0.80;;
42030;SDS011;27709;52.036;5.906;2024-02-23T08:59:24;7.70;;;0.82;;
42030;SDS011;27709;52.036;5.906;2024-02-23T09:01:50;7.65;;;0.80;;
42030;SDS011;27709;52.036;5.906;2024-02-23T09:04:15;7.07;;;0.70;;
42030;SDS011;27709;52.036;5.906;2024-02-23T09:06:42;6.65;;;0.70;;
42030;SDS011;27709;52.036;5.906;2024-02-23T09:09:08;7.28;;;0.73;;
42030;SDS011;27709;52.036;5.906;2024-02-23T09:11:34;3.85;;;0.80;;
42030;SDS011;27709;52.036;5.906;2024-02-23T09:14:01;6.55;;;0.82;;
42030;SDS011;27709;52.036;5.906;2024-02-23T09:16:26;6.35;;;0.82;;
42030;SDS011;27709;52.036;5.906;2024-02-23T09:18:52;5.03;;;0.80;;
42030;SDS011;27709;52.036;5.906;2024-02-23T09:21:18;4.60;;;0.73;;
42030;SDS011;27709;52.036;5.906;2024-02-23T09:23:44;6.57;;;0.77;;
42030;SDS011;27709;52.036;5.906;2024-02-23T09:26:09;5.15;;;0.60;;
42030;SDS011;27709;52.036;5.906;2024-02-23T09:28:38;4.88;;;0.90;;
42030;SDS011;27709;52.036;5.906;2024-02-23T09:31:06;4.75;;;0.90;;
42030;SDS011;27709;52.036;5.906;2024-02-23T09:33:31;8.02;;;0.80;;
42030;SDS011;27709;52.036;5.906;2024-02-23T09:35:57;5.10;;;0.60;;
42030;SDS011;27709;52.036;5.906;2024-02-23T09:38:23;5.65;;;0.95;;
42030;SDS011;27709;52.036;5.906;2024-02-23T09:40:50;7.72;;;1.00;;
42030;SDS011;27709;52.036;5.906;2024-02-23T09:43:16;5.20;;;0.80;;
42030;SDS011;27709;52.036;5.906;2024-02-23T09:45:42;7.15;;;0.68;;
42030;SDS011;27709;52.036;5.906;2024-02-23T09:48:11;7.50;;;0.82;;
42030;SDS011;27709;52.036;5.906;2024-02-23T09:50:39;5.70;;;0.80;;
42030;SDS011;27709;52.036;5.906;2024-02-23T09:53:09;3.65;;;0.70;;
42030;SDS011;27709;52.036;5.906;2024-02-23T09:55:38;7.50;;;0.80;;
42030;SDS011;27709;52.036;5.906;2024-02-23T09:58:03;7.35;;;0.88;;
42030;SDS011;27709;52.036;5.906;2024-02-23T10:00:31;4.85;;;0.68;;
42030;SDS011;27709;52.036;5.906;2024-02-23T10:02:59;3.45;;;0.70;;
42030;SDS011;27709;52.036;5.906;2024-02-23T10:05:29;6.40;;;0.75;;
42030;SDS011;27709;52.036;5.906;2024-02-23T10:07:55;4.10;;;0.70;;
42030;SDS011;27709;52.036;5.906;2024-02-23T10:10:32;4.15;;;0.65;;
42030;SDS011;27709;52.036;5.906;2024-02-23T10:12:59;6.32;;;0.75;;
42030;SDS011;27709;52.036;5.906;2024-02-23T10:15:26;3.13;;;0.70;;
42030;SDS011;27709;52.036;5.906;2024-02-23T10:17:54;3.90;;;0.70;;
42030;SDS011;27709;52.036;5.906;2024-02-23T10:20:20;5.93;;;0.60;;
42030;SDS011;27709;52.036;5.906;2024-02-23T10:22:45;6.20;;;0.95;;
42030;SDS011;27709;52.036;5.906;2024-02-23T10:25:11;6.30;;;0.82;;
42030;SDS011;27709;52.036;5.906;2024-02-23T10:27:37;8.50;;;0.75;;
42030;SDS011;27709;52.036;5.906;2024-02-23T10:30:03;4.88;;;0.93;;
42030;SDS011;27709;52.036;5.906;2024-02-23T10:32:29;7.30;;;0.93;;
42030;SDS011;27709;52.036;5.906;2024-02-23T10:34:58;3.50;;;0.93;;
42030;SDS011;27709;52.036;5.906;2024-02-23T10:37:29;5.50;;;1.05;;
42030;SDS011;27709;52.036;5.906;2024-02-23T10:39:57;3.90;;;1.00;;
42030;SDS011;27709;52.036;5.906;2024-02-23T10:42:25;4.28;;;1.10;;
42030;SDS011;27709;52.036;5.906;2024-02-23T10:44:55;5.90;;;2.20;;
42030;SDS011;27709;52.036;5.906;2024-02-23T10:47:26;4.45;;;0.73;;
42030;SDS011;27709;52.036;5.906;2024-02-23T10:49:53;4.38;;;0.70;;
42030;SDS011;27709;52.036;5.906;2024-02-23T10:52:20;3.47;;;0.80;;
42030;SDS011;27709;52.036;5.906;2024-02-23T10:54:49;6.72;;;0.90;;
42030;SDS011;27709;52.036;5.906;2024-02-23T10:57:16;3.55;;;0.50;;
42030;SDS011;27709;52.036;5.906;2024-02-23T10:59:46;5.18;;;0.85;;
42030;SDS011;27709;52.036;5.906;2024-02-23T11:02:16;4.32;;;0.68;;
42030;SDS011;27709;52.036;5.906;2024-02-23T11:04:48;4.15;;;0.95;;
42030;SDS011;27709;52.036;5.906;2024-02-23T11:07:15;4.25;;;0.55;;
42030;SDS011;27709;52.036;5.906;2024-02-23T11:09:48;2.42;;;0.57;;
42030;SDS011;27709;52.036;5.906;2024-02-23T11:12:21;4.47;;;0.50;;
42030;SDS011;27709;52.036;5.906;2024-02-23T11:14:49;3.58;;;0.60;;
42030;SDS011;27709;52.036;5.906;2024-02-23T11:17:19;3.42;;;0.55;;
42030;SDS011;27709;52.036;5.906;2024-02-23T11:19:50;4.50;;;0.60;;
42030;SDS011;27709;52.036;5.906;2024-02-23T11:22:23;4.07;;;0.60;;
42030;SDS011;27709;52.036;5.906;2024-02-23T11:24:52;4.22;;;0.50;;
42030;SDS011;27709;52.036;5.906;2024-02-23T11:27:18;5.13;;;0.50;;
42030;SDS011;27709;52.036;5.906;2024-02-23T11:29:47;4.35;;;0.50;;
42030;SDS011;27709;52.036;5.906;2024-02-23T11:32:23;4.13;;;0.50;;
42030;SDS011;27709;52.036;5.906;2024-02-23T11:35:08;3.97;;;0.52;;
42030;SDS011;27709;52.036;5.906;2024-02-23T11:37:52;3.25;;;0.43;;
42030;SDS011;27709;52.036;5.906;2024-02-23T11:40:26;3.30;;;0.50;;
42030;SDS011;27709;52.036;5.906;2024-02-23T11:42:54;3.88;;;0.70;;
42030;SDS011;27709;52.036;5.906;2024-02-23T11:45:20;3.30;;;0.50;;
42030;SDS011;27709;52.036;5.906;2024-02-23T11:47:49;4.47;;;1.00;;
42030;SDS011;27709;52.036;5.906;2024-02-23T11:50:14;2.60;;;0.40;;
42030;SDS011;27709;52.036;5.906;2024-02-23T11:52:41;4.43;;;0.52;;
42030;SDS011;27709;52.036;5.906;2024-02-23T11:55:07;4.30;;;0.50;;
42030;SDS011;27709;52.036;5.906;2024-02-23T11:57:35;2.95;;;0.50;;
42030;SDS011;27709;52.036;5.906;2024-02-23T12:00:03;4.97;;;0.60;;
42030;SDS011;27709;52.036;5.906;2024-02-23T12:02:32;3.42;;;0.68;;
42030;SDS011;27709;52.036;5.906;2024-02-23T12:04:58;3.30;;;0.63;;
42030;SDS011;27709;52.036;5.906;2024-02-23T12:07:23;3.90;;;0.52;;
42030;SDS011;27709;52.036;5.906;2024-02-23T12:09:51;3.80;;;0.60;;
42030;SDS011;27709;52.036;5.906;2024-02-23T12:12:17;3.88;;;1.00;;
42030;SDS011;27709;52.036;5.906;2024-02-23T12:14:43;5.75;;;2.40;;
42030;SDS011;27709;52.036;5.906;2024-02-23T12:17:09;4.68;;;0.98;;
42030;SDS011;27709;52.036;5.906;2024-02-23T12:19:41;4.40;;;1.13;;
42030;SDS011;27709;52.036;5.906;2024-02-23T12:22:07;3.88;;;0.82;;
42030;SDS011;27709;52.036;5.906;2024-02-23T12:24:34;4.32;;;0.88;;
42030;SDS011;27709;52.036;5.906;2024-02-23T12:26:59;4.85;;;1.58;;
42030;SDS011;27709;52.036;5.906;2024-02-23T12:29:25;3.47;;;0.95;;
42030;SDS011;27709;52.036;5.906;2024-02-23T12:32:01;4.65;;;1.00;;
42030;SDS011;27709;52.036;5.906;2024-02-23T12:34:30;3.72;;;0.80;;
42030;SDS011;27709;52.036;5.906;2024-02-23T12:36:56;3.97;;;0.85;;
42030;SDS011;27709;52.036;5.906;2024-02-23T12:39:23;4.65;;;0.88;;
42030;SDS011;27709;52.036;5.906;2024-02-23T12:41:49;3.05;;;0.70;;
42030;SDS011;27709;52.036;5.906;2024-02-23T12:44:15;4.43;;;1.00;;
42030;SDS011;27709;52.036;5.906;2024-02-23T12:46:41;5.35;;;0.70;;
42030;SDS011;27709;52.036;5.906;2024-02-23T12:49:07;4.00;;;0.85;;
42030;SDS011;27709;52.036;5.906;2024-02-23T12:51:32;3.05;;;0.70;;
42030;SDS011;27709;52.036;5.906;2024-02-23T12:53:59;3.88;;;0.80;;
42030;SDS011;27709;52.036;5.906;2024-02-23T12:56:25;1.92;;;0.50;;
42030;SDS011;27709;52.036;5.906;2024-02-23T12:58:51;4.60;;;0.65;;
42030;SDS011;27709;52.036;5.906;2024-02-23T13:01:18;3.33;;;0.68;;
42030;SDS011;27709;52.036;5.906;2024-02-23T13:03:44;4.85;;;0.77;;
42030;SDS011;27709;52.036;5.906;2024-02-23T13:06:10;3.67;;;0.70;;
42030;SDS011;27709;52.036;5.906;2024-02-23T13:08:36;4.50;;;0.80;;
42030;SDS011;27709;52.036;5.906;2024-02-23T13:11:04;4.13;;;0.70;;
42030;SDS011;27709;52.036;5.906;2024-02-23T13:13:30;3.83;;;1.15;;
42030;SDS011;27709;52.036;5.906;2024-02-23T13:16:00;4.82;;;0.90;;
42030;SDS011;27709;52.036;5.906;2024-02-23T13:18:25;3.22;;;0.80;;
42030;SDS011;27709;52.036;5.906;2024-02-23T13:20:51;4.35;;;0.80;;
42030;SDS011;27709;52.036;5.906;2024-02-23T13:23:17;4.00;;;0.68;;
42030;SDS011;27709;52.036;5.906;2024-02-23T13:25:45;3.72;;;0.90;;
42030;SDS011;27709;52.036;5.906;2024-02-23T13:28:11;3.25;;;0.63;;
42030;SDS011;27709;52.036;5.906;2024-02-23T13:30:36;2.40;;;0.68;;
42030;SDS011;27709;52.036;5.906;2024-02-23T13:33:03;3.72;;;0.75;;
42030;SDS011;27709;52.036;5.906;2024-02-23T13:35:33;2.45;;;0.80;;
42030;SDS011;27709;52.036;5.906;2024-02-23T13:37:59;2.45;;;0.70;;
42030;SDS011;27709;52.036;5.906;2024-02-23T13:40:29;5.05;;;0.90;;
42030;SDS011;27709;52.036;5.906;2024-02-23T13:43:01;4.70;;;0.73;;
42030;SDS011;27709;52.036;5.906;2024-02-23T13:45:30;1.45;;;0.50;;
42030;SDS011;27709;52.036;5.906;2024-02-23T13:48:13;5.68;;;0.70;;
42030;SDS011;27709;52.036;5.906;2024-02-23T13:50:41;5.68;;;0.70;;
42030;SDS011;27709;52.036;5.906;2024-02-23T13:53:07;4.63;;;0.70;;
42030;SDS011;27709;52.036;5.906;2024-02-23T13:55:33;2.92;;;0.70;;
42030;SDS011;27709;52.036;5.906;2024-02-23T13:58:00;2.97;;;0.73;;
42030;SDS011;27709;52.036;5.906;2024-02-23T14:00:29;3.35;;;0.70;;
42030;SDS011;27709;52.036;5.906;2024-02-23T14:02:54;3.72;;;0.88;;
42030;SDS011;27709;52.036;5.906;2024-02-23T14:05:20;3.33;;;0.60;;
42030;SDS011;27709;52.036;5.906;2024-02-23T14:07:47;6.18;;;0.82;;
42030;SDS011;27709;52.036;5.906;2024-02-23T14:10:18;5.00;;;0.80;;
42030;SDS011;27709;52.036;5.906;2024-02-23T14:12:44;5.88;;;0.90;;
42030;SDS011;27709;52.036;5.906;2024-02-23T14:15:11;7.53;;;1.15;;
42030;SDS011;27709;52.036;5.906;2024-02-23T14:17:37;2.78;;;0.70;;
42030;SDS011;27709;52.036;5.906;2024-02-23T14:20:03;5.72;;;1.08;;
42030;SDS011;27709;52.036;5.906;2024-02-23T14:22:29;3.45;;;0.85;;
42030;SDS011;27709;52.036;5.906;2024-02-23T14:24:56;4.80;;;1.08;;
42030;SDS011;27709;52.036;5.906;2024-02-23T14:27:22;3.30;;;0.80;;
42030;SDS011;27709;52.036;5.906;2024-02-23T14:29:47;4.50;;;0.77;;
42030;SDS011;27709;52.036;5.906;2024-02-23T14:32:14;2.42;;;0.60;;
42030;SDS011;27709;52.036;5.906;2024-02-23T14:34:41;4.40;;;0.77;;
42030;SDS011;27709;52.036;5.906;2024-02-23T14:37:07;4.68;;;0.90;;
42030;SDS011;27709;52.036;5.906;2024-02-23T14:39:33;4.07;;;0.93;;
42030;SDS011;27709;52.036;5.906;2024-02-23T14:41:59;3.97;;;0.80;;
42030;SDS011;27709;52.036;5.906;2024-02-23T14:44:33;3.67;;;0.85;;